Sterling/Rock Falls, Illinois
Current Conditions -  °F | °C
As of 4:55 AM on Sunday 23 Nov 2014 (Local Time) from KSQI Reporting Station
Overcast Overcast  
Wind Chill: 10°   Ceiling: 2800
Heat Index: 10°   Visibility: 8mi
Dew Point:   Wind: 7mph
Humidity: 87%   Direction: 190°S
Pressure: 29.7"   Gusts: NA
Location:  41.73°N, 89.68°W
Report Text: KSQI 231055Z 19006KT 8SM OVC028 10/08 A2970 RMK AO1
Loading
Personal Weather Stations






























Interactive Weather Map New forecast layout! Learn more

10-Day Weather Forecast

Advertisements
Track Severe Weather on mobile